sensor_id;sensor_type;location;lat;lon;timestamp;P1;durP1;ratioP1;P2;durP2;ratioP2
53293;SDS011;39181;53.440;5.644;2023-08-01T00:00:10;11.65;;;2.88;;
53293;SDS011;39181;53.440;5.644;2023-08-01T00:02:36;11.07;;;3.15;;
53293;SDS011;39181;53.440;5.644;2023-08-01T00:05:03;10.93;;;2.63;;
53293;SDS011;39181;53.440;5.644;2023-08-01T00:07:29;8.02;;;2.60;;
53293;SDS011;39181;53.440;5.644;2023-08-01T00:09:54;10.85;;;3.00;;
53293;SDS011;39181;53.440;5.644;2023-08-01T00:12:20;10.10;;;2.45;;
53293;SDS011;39181;53.440;5.644;2023-08-01T00:14:45;14.73;;;3.13;;
53293;SDS011;39181;53.440;5.644;2023-08-01T00:17:11;10.00;;;2.67;;
53293;SDS011;39181;53.440;5.644;2023-08-01T00:19:36;11.55;;;3.30;;
53293;SDS011;39181;53.440;5.644;2023-08-01T00:22:02;10.55;;;3.30;;
53293;SDS011;39181;53.440;5.644;2023-08-01T00:24:28;11.93;;;2.90;;
53293;SDS011;39181;53.440;5.644;2023-08-01T00:26:53;11.15;;;3.05;;
53293;SDS011;39181;53.440;5.644;2023-08-01T00:29:20;9.60;;;3.28;;
53293;SDS011;39181;53.440;5.644;2023-08-01T00:31:46;12.38;;;2.92;;
53293;SDS011;39181;53.440;5.644;2023-08-01T00:34:12;11.55;;;3.63;;
53293;SDS011;39181;53.440;5.644;2023-08-01T00:36:37;10.20;;;2.80;;
53293;SDS011;39181;53.440;5.644;2023-08-01T00:39:03;9.85;;;3.30;;
53293;SDS011;39181;53.440;5.644;2023-08-01T00:41:29;7.78;;;3.03;;
53293;SDS011;39181;53.440;5.644;2023-08-01T00:43:54;15.38;;;3.38;;
53293;SDS011;39181;53.440;5.644;2023-08-01T00:46:20;12.57;;;2.90;;
53293;SDS011;39181;53.440;5.644;2023-08-01T00:48:45;10.50;;;3.17;;
53293;SDS011;39181;53.440;5.644;2023-08-01T00:51:11;8.70;;;3.22;;
53293;SDS011;39181;53.440;5.644;2023-08-01T00:53:38;10.10;;;2.60;;
53293;SDS011;39181;53.440;5.644;2023-08-01T00:56:04;8.57;;;3.50;;
53293;SDS011;39181;53.440;5.644;2023-08-01T00:58:30;9.40;;;2.90;;
53293;SDS011;39181;53.440;5.644;2023-08-01T01:00:55;9.18;;;2.75;;
53293;SDS011;39181;53.440;5.644;2023-08-01T01:03:22;21.00;;;2.78;;
53293;SDS011;39181;53.440;5.644;2023-08-01T01:06:31;9.57;;;3.25;;
53293;SDS011;39181;53.440;5.644;2023-08-01T01:08:42;10.18;;;2.78;;
53293;SDS011;39181;53.440;5.644;2023-08-01T01:11:08;13.48;;;3.70;;
53293;SDS011;39181;53.440;5.644;2023-08-01T01:13:34;10.85;;;3.60;;
53293;SDS011;39181;53.440;5.644;2023-08-01T01:15:59;8.10;;;2.85;;
53293;SDS011;39181;53.440;5.644;2023-08-01T01:18:25;14.25;;;3.35;;
53293;SDS011;39181;53.440;5.644;2023-08-01T01:20:51;11.13;;;3.22;;
53293;SDS011;39181;53.440;5.644;2023-08-01T01:23:16;7.28;;;3.10;;
53293;SDS011;39181;53.440;5.644;2023-08-01T01:25:43;12.80;;;3.45;;
53293;SDS011;39181;53.440;5.644;2023-08-01T01:28:11;11.27;;;3.03;;
53293;SDS011;39181;53.440;5.644;2023-08-01T01:30:38;12.15;;;3.33;;
53293;SDS011;39181;53.440;5.644;2023-08-01T01:33:04;10.23;;;3.08;;
53293;SDS011;39181;53.440;5.644;2023-08-01T01:35:33;13.70;;;3.58;;
53293;SDS011;39181;53.440;5.644;2023-08-01T01:37:59;9.60;;;3.03;;
53293;SDS011;39181;53.440;5.644;2023-08-01T01:40:28;9.30;;;3.55;;
53293;SDS011;39181;53.440;5.644;2023-08-01T01:42:58;10.23;;;3.40;;
53293;SDS011;39181;53.440;5.644;2023-08-01T01:45:26;11.32;;;3.42;;
53293;SDS011;39181;53.440;5.644;2023-08-01T01:47:52;15.23;;;3.38;;
53293;SDS011;39181;53.440;5.644;2023-08-01T01:50:18;8.77;;;2.70;;
53293;SDS011;39181;53.440;5.644;2023-08-01T01:52:44;13.43;;;2.90;;
53293;SDS011;39181;53.440;5.644;2023-08-01T01:55:10;15.02;;;2.92;;
53293;SDS011;39181;53.440;5.644;2023-08-01T01:57:35;12.25;;;2.90;;
53293;SDS011;39181;53.440;5.644;2023-08-01T02:00:04;14.65;;;2.60;;
53293;SDS011;39181;53.440;5.644;2023-08-01T02:02:31;12.65;;;2.28;;
53293;SDS011;39181;53.440;5.644;2023-08-01T02:04:56;12.27;;;2.45;;
53293;SDS011;39181;53.440;5.644;2023-08-01T02:07:22;8.63;;;2.25;;
53293;SDS011;39181;53.440;5.644;2023-08-01T02:09:47;8.73;;;1.60;;
53293;SDS011;39181;53.440;5.644;2023-08-01T02:12:13;12.73;;;2.20;;
53293;SDS011;39181;53.440;5.644;2023-08-01T02:14:39;9.38;;;1.70;;
53293;SDS011;39181;53.440;5.644;2023-08-01T02:17:05;9.80;;;1.90;;
53293;SDS011;39181;53.440;5.644;2023-08-01T02:19:32;10.93;;;1.73;;
53293;SDS011;39181;53.440;5.644;2023-08-01T02:21:57;9.57;;;2.03;;
53293;SDS011;39181;53.440;5.644;2023-08-01T02:24:23;14.07;;;2.10;;
53293;SDS011;39181;53.440;5.644;2023-08-01T02:26:49;12.23;;;2.22;;
53293;SDS011;39181;53.440;5.644;2023-08-01T02:29:15;8.93;;;1.60;;
53293;SDS011;39181;53.440;5.644;2023-08-01T02:31:41;10.60;;;1.75;;
53293;SDS011;39181;53.440;5.644;2023-08-01T02:34:06;5.30;;;0.98;;
53293;SDS011;39181;53.440;5.644;2023-08-01T02:36:32;7.38;;;0.85;;
53293;SDS011;39181;53.440;5.644;2023-08-01T02:38:57;7.97;;;1.27;;
53293;SDS011;39181;53.440;5.644;2023-08-01T02:41:23;6.65;;;1.40;;
53293;SDS011;39181;53.440;5.644;2023-08-01T02:43:49;5.40;;;1.00;;
53293;SDS011;39181;53.440;5.644;2023-08-01T02:46:14;5.95;;;0.90;;
53293;SDS011;39181;53.440;5.644;2023-08-01T02:48:40;4.88;;;1.17;;
53293;SDS011;39181;53.440;5.644;2023-08-01T02:51:05;9.23;;;1.10;;
53293;SDS011;39181;53.440;5.644;2023-08-01T02:53:34;7.75;;;1.77;;
53293;SDS011;39181;53.440;5.644;2023-08-01T02:56:00;8.10;;;1.25;;
53293;SDS011;39181;53.440;5.644;2023-08-01T02:58:25;9.60;;;1.38;;
53293;SDS011;39181;53.440;5.644;2023-08-01T03:00:51;10.93;;;1.40;;
53293;SDS011;39181;53.440;5.644;2023-08-01T03:03:16;6.85;;;1.30;;
53293;SDS011;39181;53.440;5.644;2023-08-01T03:05:42;8.52;;;1.05;;
53293;SDS011;39181;53.440;5.644;2023-08-01T03:08:08;6.35;;;1.02;;
53293;SDS011;39181;53.440;5.644;2023-08-01T03:10:33;10.57;;;1.63;;
53293;SDS011;39181;53.440;5.644;2023-08-01T03:12:59;7.53;;;1.27;;
53293;SDS011;39181;53.440;5.644;2023-08-01T03:15:25;5.78;;;1.40;;
53293;SDS011;39181;53.440;5.644;2023-08-01T03:17:52;9.23;;;1.23;;
53293;SDS011;39181;53.440;5.644;2023-08-01T03:20:18;16.08;;;1.45;;
53293;SDS011;39181;53.440;5.644;2023-08-01T03:22:43;6.40;;;1.30;;
53293;SDS011;39181;53.440;5.644;2023-08-01T03:25:09;11.75;;;1.70;;
53293;SDS011;39181;53.440;5.644;2023-08-01T03:27:35;8.18;;;1.48;;
53293;SDS011;39181;53.440;5.644;2023-08-01T03:30:01;9.95;;;1.02;;
53293;SDS011;39181;53.440;5.644;2023-08-01T03:32:29;8.75;;;1.75;;
53293;SDS011;39181;53.440;5.644;2023-08-01T03:34:54;8.10;;;1.40;;
53293;SDS011;39181;53.440;5.644;2023-08-01T03:37:20;6.55;;;1.23;;
53293;SDS011;39181;53.440;5.644;2023-08-01T03:39:46;7.38;;;1.50;;
53293;SDS011;39181;53.440;5.644;2023-08-01T03:42:11;7.40;;;1.67;;
53293;SDS011;39181;53.440;5.644;2023-08-01T03:44:37;8.45;;;1.50;;
53293;SDS011;39181;53.440;5.644;2023-08-01T03:47:02;10.52;;;1.20;;
53293;SDS011;39181;53.440;5.644;2023-08-01T03:49:28;10.35;;;1.70;;
53293;SDS011;39181;53.440;5.644;2023-08-01T03:51:54;8.50;;;1.10;;
53293;SDS011;39181;53.440;5.644;2023-08-01T03:54:19;6.03;;;1.55;;
53293;SDS011;39181;53.440;5.644;2023-08-01T03:56:45;9.95;;;1.50;;
53293;SDS011;39181;53.440;5.644;2023-08-01T03:59:12;8.40;;;1.50;;
53293;SDS011;39181;53.440;5.644;2023-08-01T04:01:38;7.85;;;1.40;;
53293;SDS011;39181;53.440;5.644;2023-08-01T04:04:04;8.57;;;1.17;;
53293;SDS011;39181;53.440;5.644;2023-08-01T04:06:29;11.18;;;1.63;;
53293;SDS011;39181;53.440;5.644;2023-08-01T04:08:55;8.60;;;1.70;;
53293;SDS011;39181;53.440;5.644;2023-08-01T04:11:21;7.75;;;1.75;;
53293;SDS011;39181;53.440;5.644;2023-08-01T04:13:47;8.95;;;1.40;;
53293;SDS011;39181;53.440;5.644;2023-08-01T04:16:13;4.88;;;1.50;;
53293;SDS011;39181;53.440;5.644;2023-08-01T04:18:39;7.70;;;1.52;;
53293;SDS011;39181;53.440;5.644;2023-08-01T04:21:04;10.52;;;1.83;;
53293;SDS011;39181;53.440;5.644;2023-08-01T04:23:31;12.02;;;1.92;;
53293;SDS011;39181;53.440;5.644;2023-08-01T04:25:57;10.27;;;2.03;;
53293;SDS011;39181;53.440;5.644;2023-08-01T04:28:24;10.07;;;1.83;;
53293;SDS011;39181;53.440;5.644;2023-08-01T04:30:50;11.63;;;1.85;;
53293;SDS011;39181;53.440;5.644;2023-08-01T04:33:16;11.77;;;1.80;;
53293;SDS011;39181;53.440;5.644;2023-08-01T04:35:41;6.57;;;1.70;;
53293;SDS011;39181;53.440;5.644;2023-08-01T04:38:07;8.32;;;2.05;;
53293;SDS011;39181;53.440;5.644;2023-08-01T04:40:33;10.13;;;1.60;;
53293;SDS011;39181;53.440;5.644;2023-08-01T04:43:00;5.07;;;1.42;;
53293;SDS011;39181;53.440;5.644;2023-08-01T04:45:26;11.77;;;1.95;;
53293;SDS011;39181;53.440;5.644;2023-08-01T04:47:52;8.23;;;1.60;;
53293;SDS011;39181;53.440;5.644;2023-08-01T04:50:17;6.55;;;1.63;;
53293;SDS011;39181;53.440;5.644;2023-08-01T04:52:43;10.73;;;1.58;;
53293;SDS011;39181;53.440;5.644;2023-08-01T04:55:08;10.00;;;1.92;;
53293;SDS011;39181;53.440;5.644;2023-08-01T04:57:34;7.25;;;2.15;;
53293;SDS011;39181;53.440;5.644;2023-08-01T05:00:00;14.15;;;1.77;;
53293;SDS011;39181;53.440;5.644;2023-08-01T05:02:25;7.07;;;1.88;;
53293;SDS011;39181;53.440;5.644;2023-08-01T05:04:51;10.27;;;2.05;;
53293;SDS011;39181;53.440;5.644;2023-08-01T05:07:17;10.40;;;2.25;;
53293;SDS011;39181;53.440;5.644;2023-08-01T05:09:42;11.00;;;1.90;;
53293;SDS011;39181;53.440;5.644;2023-08-01T05:12:08;11.35;;;2.20;;
53293;SDS011;39181;53.440;5.644;2023-08-01T05:14:34;11.88;;;2.20;;
53293;SDS011;39181;53.440;5.644;2023-08-01T05:16:59;11.52;;;1.98;;
53293;SDS011;39181;53.440;5.644;2023-08-01T05:19:25;5.45;;;2.22;;
53293;SDS011;39181;53.440;5.644;2023-08-01T05:21:51;5.28;;;1.25;;
53293;SDS011;39181;53.440;5.644;2023-08-01T05:24:16;15.10;;;1.52;;
53293;SDS011;39181;53.440;5.644;2023-08-01T05:26:42;11.13;;;2.13;;
53293;SDS011;39181;53.440;5.644;2023-08-01T05:29:07;11.15;;;1.40;;
53293;SDS011;39181;53.440;5.644;2023-08-01T05:31:33;12.45;;;1.75;;
53293;SDS011;39181;53.440;5.644;2023-08-01T05:33:59;13.32;;;1.60;;
53293;SDS011;39181;53.440;5.644;2023-08-01T05:36:24;11.50;;;1.27;;
53293;SDS011;39181;53.440;5.644;2023-08-01T05:38:50;6.00;;;1.10;;
53293;SDS011;39181;53.440;5.644;2023-08-01T05:41:16;13.70;;;2.13;;
53293;SDS011;39181;53.440;5.644;2023-08-01T05:43:41;11.57;;;1.30;;
53293;SDS011;39181;53.440;5.644;2023-08-01T05:46:07;6.40;;;1.20;;
53293;SDS011;39181;53.440;5.644;2023-08-01T05:48:32;9.02;;;1.10;;
53293;SDS011;39181;53.440;5.644;2023-08-01T05:50:58;7.75;;;0.88;;
53293;SDS011;39181;53.440;5.644;2023-08-01T05:53:23;8.52;;;1.30;;
53293;SDS011;39181;53.440;5.644;2023-08-01T05:55:49;9.85;;;0.85;;
53293;SDS011;39181;53.440;5.644;2023-08-01T05:58:15;4.93;;;0.80;;
53293;SDS011;39181;53.440;5.644;2023-08-01T06:00:41;9.90;;;1.10;;
53293;SDS011;39181;53.440;5.644;2023-08-01T06:03:06;11.07;;;1.00;;
53293;SDS011;39181;53.440;5.644;2023-08-01T06:05:32;9.85;;;1.30;;
53293;SDS011;39181;53.440;5.644;2023-08-01T06:07:58;6.15;;;0.93;;
53293;SDS011;39181;53.440;5.644;2023-08-01T06:10:23;9.40;;;1.17;;
53293;SDS011;39181;53.440;5.644;2023-08-01T06:12:49;5.55;;;1.10;;
53293;SDS011;39181;53.440;5.644;2023-08-01T06:15:16;9.38;;;1.75;;
53293;SDS011;39181;53.440;5.644;2023-08-01T06:17:41;14.73;;;1.30;;
53293;SDS011;39181;53.440;5.644;2023-08-01T06:20:07;10.45;;;1.50;;
53293;SDS011;39181;53.440;5.644;2023-08-01T06:22:33;12.70;;;1.30;;
53293;SDS011;39181;53.440;5.644;2023-08-01T06:24:59;10.57;;;1.45;;
53293;SDS011;39181;53.440;5.644;2023-08-01T06:27:24;7.75;;;1.35;;
53293;SDS011;39181;53.440;5.644;2023-08-01T06:29:50;10.18;;;1.83;;
53293;SDS011;39181;53.440;5.644;2023-08-01T06:32:16;9.50;;;1.42;;
53293;SDS011;39181;53.440;5.644;2023-08-01T06:34:41;7.85;;;2.00;;
53293;SDS011;39181;53.440;5.644;2023-08-01T06:37:07;5.65;;;1.40;;
53293;SDS011;39181;53.440;5.644;2023-08-01T06:39:32;11.95;;;1.90;;
53293;SDS011;39181;53.440;5.644;2023-08-01T06:41:58;11.68;;;1.92;;
53293;SDS011;39181;53.440;5.644;2023-08-01T06:44:23;8.73;;;1.70;;
53293;SDS011;39181;53.440;5.644;2023-08-01T06:46:49;7.32;;;1.15;;
53293;SDS011;39181;53.440;5.644;2023-08-01T06:49:14;6.80;;;1.08;;
53293;SDS011;39181;53.440;5.644;2023-08-01T06:51:40;8.00;;;1.23;;
53293;SDS011;39181;53.440;5.644;2023-08-01T06:54:07;10.68;;;1.80;;
53293;SDS011;39181;53.440;5.644;2023-08-01T06:56:33;9.02;;;1.30;;
53293;SDS011;39181;53.440;5.644;2023-08-01T06:58:59;7.47;;;1.10;;
53293;SDS011;39181;53.440;5.644;2023-08-01T07:01:24;5.80;;;1.23;;
53293;SDS011;39181;53.440;5.644;2023-08-01T07:03:50;8.95;;;1.48;;
53293;SDS011;39181;53.440;5.644;2023-08-01T07:06:18;7.40;;;0.80;;
53293;SDS011;39181;53.440;5.644;2023-08-01T07:08:44;10.82;;;1.30;;
53293;SDS011;39181;53.440;5.644;2023-08-01T07:11:09;11.07;;;1.42;;
53293;SDS011;39181;53.440;5.644;2023-08-01T07:13:35;19.50;;;2.55;;
53293;SDS011;39181;53.440;5.644;2023-08-01T07:16:00;12.05;;;2.03;;
53293;SDS011;39181;53.440;5.644;2023-08-01T07:18:26;13.63;;;1.60;;
53293;SDS011;39181;53.440;5.644;2023-08-01T07:20:59;7.38;;;1.35;;
53293;SDS011;39181;53.440;5.644;2023-08-01T07:23:28;7.63;;;1.08;;
53293;SDS011;39181;53.440;5.644;2023-08-01T07:25:54;6.18;;;0.95;;
53293;SDS011;39181;53.440;5.644;2023-08-01T07:28:19;7.05;;;1.13;;
53293;SDS011;39181;53.440;5.644;2023-08-01T07:30:45;5.65;;;1.00;;
53293;SDS011;39181;53.440;5.644;2023-08-01T07:33:10;3.30;;;0.95;;
53293;SDS011;39181;53.440;5.644;2023-08-01T07:35:36;4.38;;;0.80;;
53293;SDS011;39181;53.440;5.644;2023-08-01T07:38:02;9.57;;;1.83;;
53293;SDS011;39181;53.440;5.644;2023-08-01T07:40:27;8.23;;;1.10;;
53293;SDS011;39181;53.440;5.644;2023-08-01T07:42:53;6.75;;;1.00;;
53293;SDS011;39181;53.440;5.644;2023-08-01T07:45:18;9.38;;;1.13;;
53293;SDS011;39181;53.440;5.644;2023-08-01T07:47:44;7.03;;;1.00;;
53293;SDS011;39181;53.440;5.644;2023-08-01T07:50:10;7.72;;;1.58;;
53293;SDS011;39181;53.440;5.644;2023-08-01T07:52:36;6.60;;;1.23;;
53293;SDS011;39181;53.440;5.644;2023-08-01T07:55:01;6.38;;;0.80;;
53293;SDS011;39181;53.440;5.644;2023-08-01T07:57:27;7.60;;;1.23;;
53293;SDS011;39181;53.440;5.644;2023-08-01T07:59:52;10.65;;;1.23;;
53293;SDS011;39181;53.440;5.644;2023-08-01T08:02:18;9.57;;;1.20;;
53293;SDS011;39181;53.440;5.644;2023-08-01T08:04:44;4.28;;;0.80;;
53293;SDS011;39181;53.440;5.644;2023-08-01T08:07:09;7.43;;;1.23;;
53293;SDS011;39181;53.440;5.644;2023-08-01T08:09:35;5.65;;;0.80;;
53293;SDS011;39181;53.440;5.644;2023-08-01T08:12:00;4.47;;;0.88;;
53293;SDS011;39181;53.440;5.644;2023-08-01T08:14:26;5.72;;;0.82;;
53293;SDS011;39181;53.440;5.644;2023-08-01T08:16:51;5.40;;;1.23;;
53293;SDS011;39181;53.440;5.644;2023-08-01T08:19:17;4.72;;;1.00;;
53293;SDS011;39181;53.440;5.644;2023-08-01T08:21:43;6.85;;;1.33;;
53293;SDS011;39181;53.440;5.644;2023-08-01T08:24:08;3.60;;;0.85;;
53293;SDS011;39181;53.440;5.644;2023-08-01T08:26:34;7.10;;;0.90;;
53293;SDS011;39181;53.440;5.644;2023-08-01T08:29:02;8.38;;;1.30;;
53293;SDS011;39181;53.440;5.644;2023-08-01T08:31:30;4.97;;;1.13;;
53293;SDS011;39181;53.440;5.644;2023-08-01T08:33:55;6.53;;;0.93;;
53293;SDS011;39181;53.440;5.644;2023-08-01T08:36:21;8.55;;;0.93;;
53293;SDS011;39181;53.440;5.644;2023-08-01T08:38:47;10.38;;;1.42;;
53293;SDS011;39181;53.440;5.644;2023-08-01T08:41:16;8.93;;;1.33;;
53293;SDS011;39181;53.440;5.644;2023-08-01T08:46:12;7.50;;;1.85;;
53293;SDS011;39181;53.440;5.644;2023-08-01T08:48:41;5.38;;;1.48;;
53293;SDS011;39181;53.440;5.644;2023-08-01T08:51:07;3.83;;;1.08;;
53293;SDS011;39181;53.440;5.644;2023-08-01T08:53:34;7.80;;;1.55;;
53293;SDS011;39181;53.440;5.644;2023-08-01T08:56:01;7.07;;;1.13;;
53293;SDS011;39181;53.440;5.644;2023-08-01T08:58:29;10.23;;;1.23;;
53293;SDS011;39181;53.440;5.644;2023-08-01T09:00:56;5.88;;;0.95;;
53293;SDS011;39181;53.440;5.644;2023-08-01T09:03:23;8.38;;;1.55;;
53293;SDS011;39181;53.440;5.644;2023-08-01T09:05:54;11.40;;;1.77;;
53293;SDS011;39181;53.440;5.644;2023-08-01T09:08:28;5.63;;;1.27;;
53293;SDS011;39181;53.440;5.644;2023-08-01T09:10:57;9.27;;;1.10;;
53293;SDS011;39181;53.440;5.644;2023-08-01T09:13:22;5.05;;;1.17;;
53293;SDS011;39181;53.440;5.644;2023-08-01T09:15:48;7.88;;;1.70;;
53293;SDS011;39181;53.440;5.644;2023-08-01T09:18:14;5.70;;;1.15;;
53293;SDS011;39181;53.440;5.644;2023-08-01T09:20:44;9.50;;;1.70;;
53293;SDS011;39181;53.440;5.644;2023-08-01T09:23:14;8.65;;;1.00;;
53293;SDS011;39181;53.440;5.644;2023-08-01T09:25:40;7.40;;;1.70;;
53293;SDS011;39181;53.440;5.644;2023-08-01T09:28:19;9.23;;;1.60;;
53293;SDS011;39181;53.440;5.644;2023-08-01T09:30:47;10.60;;;1.52;;
53293;SDS011;39181;53.440;5.644;2023-08-01T09:33:14;9.68;;;1.45;;
53293;SDS011;39181;53.440;5.644;2023-08-01T09:35:40;8.13;;;1.92;;
53293;SDS011;39181;53.440;5.644;2023-08-01T09:38:06;8.45;;;1.42;;
53293;SDS011;39181;53.440;5.644;2023-08-01T09:40:37;7.68;;;1.92;;
53293;SDS011;39181;53.440;5.644;2023-08-01T09:43:05;11.45;;;1.65;;
53293;SDS011;39181;53.440;5.644;2023-08-01T09:45:31;7.65;;;1.35;;
53293;SDS011;39181;53.440;5.644;2023-08-01T09:47:57;7.50;;;1.17;;
53293;SDS011;39181;53.440;5.644;2023-08-01T09:50:23;8.82;;;1.30;;
53293;SDS011;39181;53.440;5.644;2023-08-01T09:52:49;10.32;;;1.63;;
53293;SDS011;39181;53.440;5.644;2023-08-01T09:55:31;13.95;;;2.08;;
53293;SDS011;39181;53.440;5.644;2023-08-01T09:57:58;14.98;;;2.20;;
53293;SDS011;39181;53.440;5.644;2023-08-01T10:00:28;8.43;;;1.85;;
53293;SDS011;39181;53.440;5.644;2023-08-01T10:02:55;13.10;;;1.60;;
53293;SDS011;39181;53.440;5.644;2023-08-01T10:05:25;10.35;;;2.00;;
53293;SDS011;39181;53.440;5.644;2023-08-01T10:08:00;7.63;;;1.80;;
53293;SDS011;39181;53.440;5.644;2023-08-01T10:10:27;8.25;;;1.48;;
53293;SDS011;39181;53.440;5.644;2023-08-01T10:12:54;11.85;;;1.73;;
53293;SDS011;39181;53.440;5.644;2023-08-01T10:15:21;11.20;;;1.98;;
53293;SDS011;39181;53.440;5.644;2023-08-01T10:17:51;7.05;;;1.20;;
53293;SDS011;39181;53.440;5.644;2023-08-01T10:20:16;10.75;;;1.75;;
53293;SDS011;39181;53.440;5.644;2023-08-01T10:22:45;8.70;;;1.48;;
53293;SDS011;39181;53.440;5.644;2023-08-01T10:25:11;6.45;;;1.10;;
53293;SDS011;39181;53.440;5.644;2023-08-01T10:27:37;7.25;;;1.27;;
53293;SDS011;39181;53.440;5.644;2023-08-01T10:30:03;6.82;;;1.27;;
53293;SDS011;39181;53.440;5.644;2023-08-01T10:32:31;8.35;;;1.20;;
53293;SDS011;39181;53.440;5.644;2023-08-01T10:34:57;7.93;;;2.10;;
53293;SDS011;39181;53.440;5.644;2023-08-01T10:37:23;10.43;;;1.50;;
53293;SDS011;39181;53.440;5.644;2023-08-01T10:39:56;10.00;;;1.50;;
53293;SDS011;39181;53.440;5.644;2023-08-01T10:42:23;6.53;;;1.40;;
53293;SDS011;39181;53.440;5.644;2023-08-01T10:44:48;13.60;;;1.65;;
53293;SDS011;39181;53.440;5.644;2023-08-01T10:47:14;6.80;;;1.33;;
53293;SDS011;39181;53.440;5.644;2023-08-01T10:49:50;7.97;;;1.60;;
53293;SDS011;39181;53.440;5.644;2023-08-01T10:52:17;7.93;;;1.27;;
53293;SDS011;39181;53.440;5.644;2023-08-01T10:54:56;13.15;;;1.92;;
53293;SDS011;39181;53.440;5.644;2023-08-01T10:57:27;8.68;;;1.73;;
53293;SDS011;39181;53.440;5.644;2023-08-01T10:59:56;10.30;;;1.40;;
53293;SDS011;39181;53.440;5.644;2023-08-01T11:02:24;8.32;;;1.13;;
53293;SDS011;39181;53.440;5.644;2023-08-01T11:04:58;10.38;;;1.40;;
53293;SDS011;39181;53.440;5.644;2023-08-01T11:07:25;9.50;;;1.40;;
53293;SDS011;39181;53.440;5.644;2023-08-01T11:10:02;7.60;;;1.00;;
53293;SDS011;39181;53.440;5.644;2023-08-01T11:12:33;9.23;;;1.98;;
53293;SDS011;39181;53.440;5.644;2023-08-01T11:15:01;12.80;;;1.38;;
53293;SDS011;39181;53.440;5.644;2023-08-01T11:17:27;9.13;;;1.67;;
53293;SDS011;39181;53.440;5.644;2023-08-01T11:20:00;11.25;;;1.77;;
53293;SDS011;39181;53.440;5.644;2023-08-01T11:22:35;4.85;;;0.95;;
53293;SDS011;39181;53.440;5.644;2023-08-01T11:25:37;10.57;;;1.63;;
53293;SDS011;39181;53.440;5.644;2023-08-01T11:28:12;12.35;;;1.95;;
53293;SDS011;39181;53.440;5.644;2023-08-01T11:30:39;11.45;;;2.00;;
53293;SDS011;39181;53.440;5.644;2023-08-01T11:33:21;12.13;;;1.75;;
53293;SDS011;39181;53.440;5.644;2023-08-01T11:38:25;8.18;;;1.48;;
53293;SDS011;39181;53.440;5.644;2023-08-01T11:40:54;13.98;;;1.83;;
53293;SDS011;39181;53.440;5.644;2023-08-01T11:43:21;6.63;;;1.60;;
53293;SDS011;39181;53.440;5.644;2023-08-01T11:45:50;12.32;;;2.83;;
53293;SDS011;39181;53.440;5.644;2023-08-01T11:48:21;6.97;;;1.48;;
53293;SDS011;39181;53.440;5.644;2023-08-01T11:50:48;8.68;;;1.63;;
53293;SDS011;39181;53.440;5.644;2023-08-01T11:53:21;10.77;;;1.27;;
53293;SDS011;39181;53.440;5.644;2023-08-01T11:55:48;8.52;;;1.08;;
53293;SDS011;39181;53.440;5.644;2023-08-01T11:58:14;11.70;;;1.55;;
53293;SDS011;39181;53.440;5.644;2023-08-01T12:00:40;9.93;;;1.73;;
53293;SDS011;39181;53.440;5.644;2023-08-01T12:03:10;9.50;;;1.33;;
53293;SDS011;39181;53.440;5.644;2023-08-01T12:05:38;11.93;;;1.42;;
53293;SDS011;39181;53.440;5.644;2023-08-01T12:08:11;5.10;;;1.02;;
53293;SDS011;39181;53.440;5.644;2023-08-01T12:10:41;5.07;;;1.08;;
53293;SDS011;39181;53.440;5.644;2023-08-01T12:13:23;5.70;;;1.08;;
53293;SDS011;39181;53.440;5.644;2023-08-01T12:15:50;5.00;;;1.00;;
53293;SDS011;39181;53.440;5.644;2023-08-01T12:18:23;11.38;;;1.70;;
53293;SDS011;39181;53.440;5.644;2023-08-01T12:20:52;7.43;;;1.60;;
53293;SDS011;39181;53.440;5.644;2023-08-01T12:23:18;5.85;;;1.27;;
53293;SDS011;39181;53.440;5.644;2023-08-01T12:25:44;12.38;;;2.35;;
53293;SDS011;39181;53.440;5.644;2023-08-01T12:28:12;6.85;;;1.35;;
53293;SDS011;39181;53.440;5.644;2023-08-01T12:30:40;10.38;;;1.35;;
53293;SDS011;39181;53.440;5.644;2023-08-01T12:33:07;5.28;;;1.10;;
53293;SDS011;39181;53.440;5.644;2023-08-01T12:35:33;3.65;;;0.77;;
53293;SDS011;39181;53.440;5.644;2023-08-01T12:37:59;4.50;;;0.70;;
53293;SDS011;39181;53.440;5.644;2023-08-01T12:40:24;3.50;;;0.80;;
53293;SDS011;39181;53.440;5.644;2023-08-01T12:42:50;5.90;;;1.55;;
53293;SDS011;39181;53.440;5.644;2023-08-01T12:45:15;7.65;;;1.45;;
53293;SDS011;39181;53.440;5.644;2023-08-01T12:47:41;7.82;;;1.02;;
53293;SDS011;39181;53.440;5.644;2023-08-01T12:50:07;6.05;;;1.10;;
53293;SDS011;39181;53.440;5.644;2023-08-01T12:52:33;6.70;;;0.93;;
53293;SDS011;39181;53.440;5.644;2023-08-01T12:54:58;6.57;;;0.95;;
53293;SDS011;39181;53.440;5.644;2023-08-01T12:57:25;9.98;;;0.98;;
53293;SDS011;39181;53.440;5.644;2023-08-01T12:59:50;4.35;;;1.10;;
53293;SDS011;39181;53.440;5.644;2023-08-01T13:02:16;7.05;;;0.90;;
53293;SDS011;39181;53.440;5.644;2023-08-01T13:04:41;8.30;;;1.35;;
53293;SDS011;39181;53.440;5.644;2023-08-01T13:07:07;10.60;;;1.40;;
53293;SDS011;39181;53.440;5.644;2023-08-01T13:09:33;7.43;;;1.65;;
53293;SDS011;39181;53.440;5.644;2023-08-01T13:11:59;6.35;;;1.30;;
53293;SDS011;39181;53.440;5.644;2023-08-01T13:14:25;6.63;;;1.02;;
53293;SDS011;39181;53.440;5.644;2023-08-01T13:16:50;8.20;;;1.08;;
53293;SDS011;39181;53.440;5.644;2023-08-01T13:19:17;9.80;;;1.38;;
53293;SDS011;39181;53.440;5.644;2023-08-01T13:21:43;11.75;;;1.83;;
53293;SDS011;39181;53.440;5.644;2023-08-01T13:24:08;7.70;;;1.15;;
53293;SDS011;39181;53.440;5.644;2023-08-01T13:26:34;4.95;;;1.45;;
53293;SDS011;39181;53.440;5.644;2023-08-01T13:29:01;9.40;;;1.55;;
53293;SDS011;39181;53.440;5.644;2023-08-01T13:31:26;9.43;;;1.80;;
53293;SDS011;39181;53.440;5.644;2023-08-01T13:33:53;6.45;;;1.50;;
53293;SDS011;39181;53.440;5.644;2023-08-01T13:36:19;10.68;;;1.40;;
53293;SDS011;39181;53.440;5.644;2023-08-01T13:38:45;7.35;;;1.30;;
53293;SDS011;39181;53.440;5.644;2023-08-01T13:41:11;7.60;;;1.10;;
53293;SDS011;39181;53.440;5.644;2023-08-01T13:43:36;13.05;;;1.40;;
53293;SDS011;39181;53.440;5.644;2023-08-01T13:46:17;4.97;;;1.25;;
53293;SDS011;39181;53.440;5.644;2023-08-01T13:48:44;6.03;;;1.20;;
53293;SDS011;39181;53.440;5.644;2023-08-01T13:51:11;5.50;;;1.10;;
53293;SDS011;39181;53.440;5.644;2023-08-01T13:53:38;8.82;;;1.13;;
53293;SDS011;39181;53.440;5.644;2023-08-01T13:56:07;7.25;;;1.42;;
53293;SDS011;39181;53.440;5.644;2023-08-01T13:58:33;7.88;;;1.05;;
53293;SDS011;39181;53.440;5.644;2023-08-01T14:01:05;3.85;;;1.00;;
53293;SDS011;39181;53.440;5.644;2023-08-01T14:03:32;9.75;;;1.58;;
53293;SDS011;39181;53.440;5.644;2023-08-01T14:08:34;9.93;;;1.45;;
53293;SDS011;39181;53.440;5.644;2023-08-01T14:11:03;11.18;;;1.80;;
53293;SDS011;39181;53.440;5.644;2023-08-01T14:13:31;10.75;;;1.75;;
53293;SDS011;39181;53.440;5.644;2023-08-01T14:15:57;6.22;;;0.88;;
53293;SDS011;39181;53.440;5.644;2023-08-01T14:18:22;11.60;;;2.17;;
53293;SDS011;39181;53.440;5.644;2023-08-01T14:20:48;9.52;;;1.55;;
53293;SDS011;39181;53.440;5.644;2023-08-01T14:23:13;9.77;;;1.25;;
53293;SDS011;39181;53.440;5.644;2023-08-01T14:25:39;6.18;;;1.20;;
53293;SDS011;39181;53.440;5.644;2023-08-01T14:28:05;11.38;;;1.10;;
53293;SDS011;39181;53.440;5.644;2023-08-01T14:30:31;9.57;;;1.48;;
53293;SDS011;39181;53.440;5.644;2023-08-01T14:33:00;10.80;;;1.50;;
53293;SDS011;39181;53.440;5.644;2023-08-01T14:35:26;9.35;;;1.73;;
53293;SDS011;39181;53.440;5.644;2023-08-01T14:37:52;9.18;;;1.30;;
53293;SDS011;39181;53.440;5.644;2023-08-01T14:40:17;8.20;;;1.35;;
53293;SDS011;39181;53.440;5.644;2023-08-01T14:42:43;5.07;;;1.45;;
53293;SDS011;39181;53.440;5.644;2023-08-01T14:45:09;9.55;;;1.45;;
53293;SDS011;39181;53.440;5.644;2023-08-01T14:47:34;10.40;;;2.28;;